Hazel Park, Michigan
Current Conditions -  °F | °C
As of 7:53 PM on Monday 24 Nov 2014 (Local Time) from KDET Reporting Station
Overcast Overcast  
Wind Chill: 29°   Ceiling: 2800
Heat Index: 40°   Visibility: 10mi
Dew Point: 28°   Wind: 24mph
Humidity: 63%   Direction: 240°WSW
Pressure: 29.58"   Gusts: 38mph
Location:  42.46°N, 83.1°W
Report Text: KDET 250053Z 24021G33KT 10SM OVC028 04/M02 A2958 RMK AO2 PK WND 24041/2358 SLP017 T00441022
Loading
Personal Weather Stations






























Interactive Weather Map New forecast layout! Learn more

10-Day Weather Forecast

Advertisements
Track Severe Weather on mobile